Time;durP1;ratioP1;P1;durP2;ratioP2;P2;SDS_P1;SDS_P2;PMS_P1;PMS_P2;Temp;Humidity;BMP_temperature;BMP_pressure;BME280_temperature;BME280_humidity;BME280_pressure;Samples;Min_cycle;Max_cycle;Signal;HPM_P1;HPM_P2
2024/01/22 00:02:03;;;;;;;9.48;4.85;;;;;;;5.73;nan;100442.06;10318958;28;20050;-71
2024/01/22 00:07:04;;;;;;;11.10;4.50;;;;;;;5.83;nan;100428.66;10311948;28;20031;-71
2024/01/22 00:12:04;;;;;;;8.52;3.88;;;;;;;5.90;nan;100422.28;10318294;28;20105;-72
2024/01/22 00:17:05;;;;;;;11.60;6.10;;;;;;;5.88;nan;100419.78;10312414;28;20045;-71
2024/01/22 00:22:06;;;;;;;8.98;4.90;;;;;;;5.86;nan;100392.69;10304585;28;20085;-71
2024/01/22 00:27:07;;;;;;;10.75;4.78;;;;;;;5.96;nan;100389.41;10313074;28;20070;-71
2024/01/22 00:32:07;;;;;;;8.18;4.63;;;;;;;5.95;nan;100365.03;10311832;28;20042;-72
2024/01/22 00:37:08;;;;;;;10.27;4.22;;;;;;;5.96;nan;100331.19;10316673;28;20034;-71
2024/01/22 00:42:08;;;;;;;8.38;5.18;;;;;;;5.98;nan;100324.41;10306114;28;20046;-71
2024/01/22 00:47:08;;;;;;;9.77;5.50;;;;;;;5.92;nan;100272.59;10316178;28;20398;-71
2024/01/22 00:52:09;;;;;;;7.20;4.95;;;;;;;6.01;nan;100260.25;10305825;28;20058;-68
2024/01/22 00:57:09;;;;;;;6.55;4.38;;;;;;;6.07;nan;100259.31;10315260;28;20081;-72
2024/01/22 01:02:10;;;;;;;6.18;4.45;;;;;;;6.13;nan;100312.19;10316730;28;20047;-71
2024/01/22 01:07:12;;;;;;;9.85;4.40;;;;;;;6.21;nan;100309.09;10315332;28;20039;-71
2024/01/22 01:12:13;;;;;;;8.27;4.18;;;;;;;6.25;nan;100316.56;10311962;28;20041;-72
2024/01/22 01:17:13;;;;;;;11.27;4.68;;;;;;;6.28;nan;100314.41;10319310;28;20054;-72
2024/01/22 01:22:14;;;;;;;7.43;4.03;;;;;;;6.31;nan;100297.56;10319299;28;20066;-72
2024/01/22 01:27:16;;;;;;;7.13;4.07;;;;;;;6.35;nan;100282.34;10319164;28;20042;-72
2024/01/22 01:32:16;;;;;;;5.50;4.28;;;;;;;6.34;nan;100259.59;10308671;28;20154;-72
2024/01/22 01:37:17;;;;;;;5.72;4.15;;;;;;;6.32;nan;100252.72;10317243;28;20146;-71
2024/01/22 01:42:17;;;;;;;6.32;4.65;;;;;;;6.37;nan;100226.34;10317136;28;20038;-72
2024/01/22 01:47:18;;;;;;;7.63;4.80;;;;;;;6.32;nan;100200.78;10319358;28;20042;-71
2024/01/22 01:52:19;;;;;;;5.43;4.30;;;;;;;6.47;nan;100233.91;10292118;28;20110;-71
2024/01/22 01:57:22;;;;;;;7.78;4.43;;;;;;;6.48;nan;100224.63;10321706;28;20053;-71
2024/01/22 02:02:22;;;;;;;9.90;8.27;;;;;;;6.47;nan;100210.13;10308731;28;20051;-72
2024/01/22 02:07:23;;;;;;;10.90;8.68;;;;;;;6.51;nan;100183.13;10302854;28;20046;-72
2024/01/22 02:12:23;;;;;;;13.02;9.13;;;;;;;6.58;nan;100194.75;10320356;28;20099;-69
2024/01/22 02:17:24;;;;;;;10.40;9.48;;;;;;;6.65;nan;100154.38;10322010;28;20042;-73
2024/01/22 02:22:24;;;;;;;12.77;11.35;;;;;;;6.70;nan;100142.72;10317419;28;20054;-72
2024/01/22 02:27:25;;;;;;;12.85;11.73;;;;;;;6.75;nan;100131.84;10321529;28;20049;-72
2024/01/22 02:32:25;;;;;;;15.27;14.18;;;;;;;6.76;nan;100110.78;10319320;28;20031;-73
2024/01/22 02:37:25;;;;;;;17.80;16.42;;;;;;;6.81;nan;100119.09;10316155;28;20039;-74
2024/01/22 02:42:26;;;;;;;17.00;15.55;;;;;;;6.79;nan;100099.38;10288283;28;20039;-72
2024/01/22 02:47:26;;;;;;;16.20;14.90;;;;;;;6.44;nan;100004.69;10321208;28;20042;-74
2024/01/22 02:52:27;;;;;;;17.63;15.90;;;;;;;6.87;nan;100039.56;10311360;28;20041;-75
2024/01/22 02:57:27;;;;;;;14.70;13.60;;;;;;;6.91;nan;100018.03;10316192;28;20482;-72
2024/01/22 03:02:28;;;;;;;15.95;14.85;;;;;;;6.90;nan;100010.88;10305697;28;20046;-73
2024/01/22 03:07:28;;;;;;;14.40;13.27;;;;;;;7.05;nan;100008.38;10313869;28;20038;-73
2024/01/22 03:12:29;;;;;;;15.23;14.02;;;;;;;7.06;nan;99982.66;10317799;28;20035;-73
2024/01/22 03:17:29;;;;;;;16.08;14.77;;;;;;;7.12;nan;99966.31;10317702;28;20281;-72
2024/01/22 03:22:29;;;;;;;16.00;14.77;;;;;;;7.22;nan;99955.50;10316912;28;20388;-73
2024/01/22 03:27:30;;;;;;;15.45;14.35;;;;;;;7.16;nan;99943.66;10315437;28;20573;-74
2024/01/22 03:32:30;;;;;;;16.10;14.77;;;;;;;7.16;nan;99924.47;10317635;28;20042;-72
2024/01/22 03:37:31;;;;;;;17.73;16.25;;;;;;;7.13;nan;99908.59;10313542;28;20110;-72
2024/01/22 03:42:32;;;;;;;16.90;15.80;;;;;;;7.18;nan;99916.84;10311987;28;20034;-72
2024/01/22 03:47:32;;;;;;;17.75;16.55;;;;;;;7.23;nan;99907.84;10314260;28;20050;-73
2024/01/22 03:52:33;;;;;;;18.48;17.23;;;;;;;7.20;nan;99908.38;10314651;28;20046;-73
2024/01/22 03:57:33;;;;;;;21.23;19.67;;;;;;;7.21;nan;99901.81;10312782;28;20043;-72
2024/01/22 04:02:34;;;;;;;21.15;19.80;;;;;;;7.24;nan;99891.19;10313194;28;20118;-73
2024/01/22 04:07:34;;;;;;;21.08;19.75;;;;;;;7.22;nan;99881.59;10310075;28;20046;-72
2024/01/22 04:12:35;;;;;;;23.60;22.00;;;;;;;7.15;nan;99850.81;10317387;28;20030;-72
2024/01/22 04:17:36;;;;;;;21.10;19.90;;;;;;;7.26;nan;99860.81;10312716;28;20043;-72
2024/01/22 04:22:36;;;;;;;22.45;20.95;;;;;;;7.20;nan;99842.69;10318094;28;20526;-71
2024/01/22 04:27:37;;;;;;;21.42;20.08;;;;;;;7.42;nan;99853.56;10311796;28;20062;-73
2024/01/22 04:32:37;;;;;;;22.02;20.73;;;;;;;7.52;nan;99830.94;10316994;28;20054;-72
2024/01/22 04:37:38;;;;;;;22.60;21.30;;;;;;;7.57;nan;99839.22;10302944;28;20422;-74
2024/01/22 04:42:40;;;;;;;22.67;21.30;;;;;;;7.60;nan;99822.25;10312213;28;20055;-72
2024/01/22 04:47:40;;;;;;;23.08;21.73;;;;;;;7.65;nan;99792.19;10310604;28;20053;-72
2024/01/22 04:52:41;;;;;;;24.65;23.20;;;;;;;7.66;nan;99799.28;10319907;28;20047;-74
2024/01/22 04:57:41;;;;;;;25.52;24.02;;;;;;;7.70;nan;99805.91;10319088;28;20043;-73
2024/01/22 05:02:42;;;;;;;27.48;25.98;;;;;;;7.76;nan;99777.47;10323508;28;20045;-74
2024/01/22 05:07:42;;;;;;;26.60;25.10;;;;;;;7.81;nan;99790.38;10324284;28;20120;-74
2024/01/22 05:12:43;;;;;;;27.10;25.40;;;;;;;7.84;nan;99787.13;10326431;28;20045;-73
2024/01/22 05:17:43;;;;;;;29.00;27.40;;;;;;;7.78;nan;99772.53;10300202;28;20045;-72
2024/01/22 05:22:45;;;;;;;30.85;29.13;;;;;;;7.89;nan;99755.06;10325468;28;20043;-72
2024/01/22 05:27:47;;;;;;;28.67;26.98;;;;;;;8.01;nan;99781.47;10318074;28;20133;-73
2024/01/22 05:32:47;;;;;;;30.77;28.77;;;;;;;8.06;nan;99781.50;10323097;28;20066;-73
2024/01/22 05:37:49;;;;;;;32.17;30.40;;;;;;;8.12;nan;99769.47;10317549;28;20058;-73
2024/01/22 05:42:49;;;;;;;29.58;27.98;;;;;;;8.27;nan;99755.03;10321082;28;20513;-72
2024/01/22 05:47:50;;;;;;;28.38;26.88;;;;;;;8.38;nan;99753.97;10323260;28;20038;-74
2024/01/22 05:52:50;;;;;;;28.40;27.00;;;;;;;8.45;nan;99753.75;10313481;28;20094;-73
2024/01/22 05:57:50;;;;;;;28.38;26.98;;;;;;;8.58;nan;99745.06;10334645;28;20046;-73
2024/01/22 06:02:51;;;;;;;27.65;26.25;;;;;;;8.67;nan;99754.41;10314728;28;20048;-73
2024/01/22 06:07:51;;;;;;;26.40;24.90;;;;;;;8.74;nan;99750.59;10315467;28;20055;-73
2024/01/22 06:12:53;;;;;;;26.50;25.10;;;;;;;8.76;nan;99756.63;10322745;28;20108;-72
2024/01/22 06:17:53;;;;;;;27.50;25.88;;;;;;;8.77;nan;99758.28;10317833;28;20082;-73
2024/01/22 06:22:54;;;;;;;26.13;24.88;;;;;;;8.84;nan;99748.69;10323852;28;20109;-72
2024/01/22 06:27:54;;;;;;;25.50;24.20;;;;;;;8.92;nan;99752.00;10315091;28;20047;-72
2024/01/22 06:32:54;;;;;;;25.38;24.08;;;;;;;9.00;nan;99768.78;10323375;28;20043;-73
2024/01/22 06:37:55;;;;;;;31.77;30.27;;;;;;;9.08;nan;99754.50;10308102;28;20062;-74
2024/01/22 06:42:55;;;;;;;31.95;30.35;;;;;;;9.22;nan;99771.28;10307549;28;20046;-71
2024/01/22 06:47:56;;;;;;;30.83;28.98;;;;;;;9.37;nan;99778.72;10321235;28;20047;-72
2024/01/22 06:52:56;;;;;;;26.13;24.80;;;;;;;9.55;nan;99784.75;10308116;28;20035;-72
2024/01/22 06:57:57;;;;;;;25.52;23.80;;;;;;;9.64;nan;99777.66;10318680;28;20046;-72
2024/01/22 07:02:58;;;;;;;24.65;23.45;;;;;;;9.67;nan;99771.56;10318190;28;20035;-72
2024/01/22 07:07:59;;;;;;;21.58;20.48;;;;;;;9.70;nan;99807.59;10298873;28;20063;-72
2024/01/22 07:12:59;;;;;;;22.13;20.85;;;;;;;9.78;nan;99806.22;10319183;28;20035;-73
2024/01/22 07:18:00;;;;;;;26.10;24.67;;;;;;;9.77;nan;99833.97;10312846;28;20043;-70
2024/01/22 07:23:00;;;;;;;30.05;28.10;;;;;;;9.65;nan;99818.59;10319952;28;20037;-73
2024/01/22 07:28:01;;;;;;;30.23;28.08;;;;;;;9.59;nan;99819.69;10312243;28;20034;-71
2024/01/22 07:33:01;;;;;;;30.58;28.17;;;;;;;9.61;nan;99855.13;10321576;28;20042;-72
2024/01/22 07:38:01;;;;;;;31.20;29.10;;;;;;;9.55;nan;99850.72;10306872;28;20039;-73
2024/01/22 07:43:02;;;;;;;29.27;27.08;;;;;;;9.55;nan;99868.03;10317266;28;20054;-70
2024/01/22 07:48:03;;;;;;;31.17;28.25;;;;;;;9.55;nan;99868.03;10317504;28;20035;-72
2024/01/22 07:53:03;;;;;;;34.72;31.58;;;;;;;9.54;nan;99877.38;10314228;28;20039;-72
2024/01/22 07:58:04;;;;;;;34.85;31.80;;;;;;;9.45;nan;99890.81;10318281;28;20050;-71
2024/01/22 08:03:05;;;;;;;33.65;30.42;;;;;;;9.40;nan;99877.06;10316422;28;20454;-72
2024/01/22 08:08:08;;;;;;;36.20;33.08;;;;;;;9.35;nan;99874.31;10310058;28;20035;-72
2024/01/22 08:13:10;;;;;;;37.00;34.22;;;;;;;9.37;nan;99885.03;10316322;28;20042;-72
2024/01/22 08:18:11;;;;;;;38.17;35.03;;;;;;;9.32;nan;99885.81;10315216;28;20042;-73
2024/01/22 08:23:11;;;;;;;40.63;37.08;;;;;;;9.35;nan;99898.22;10315667;28;20034;-71
2024/01/22 08:28:12;;;;;;;42.45;38.33;;;;;;;9.35;nan;99918.25;10318815;28;20532;-72
2024/01/22 08:33:12;;;;;;;43.38;39.55;;;;;;;9.34;nan;99916.59;10323954;28;20039;-73
2024/01/22 08:38:13;;;;;;;49.28;44.30;;;;;;;9.32;nan;99927.03;10305594;28;20038;-72
2024/01/22 08:43:13;;;;;;;44.80;40.15;;;;;;;9.29;nan;99930.31;10326902;28;20057;-72
2024/01/22 08:48:14;;;;;;;41.75;37.05;;;;;;;9.27;nan;99949.00;10319947;28;20046;-73
2024/01/22 08:53:14;;;;;;;42.22;38.78;;;;;;;9.26;nan;99963.81;10319065;28;20039;-69
2024/01/22 08:58:15;;;;;;;44.40;40.58;;;;;;;9.26;nan;100024.22;10326251;28;20057;-71
2024/01/22 09:03:15;;;;;;;41.10;37.15;;;;;;;9.16;nan;100030.50;10319971;28;20052;-72
2024/01/22 09:08:16;;;;;;;41.95;34.83;;;;;;;8.98;nan;100031.78;10313212;28;20063;-72
2024/01/22 09:13:16;;;;;;;40.40;36.80;;;;;;;8.80;nan;100035.75;10320466;28;20042;-72
2024/01/22 09:18:17;;;;;;;43.08;38.78;;;;;;;8.80;nan;100040.41;10316351;28;20042;-72
2024/01/22 09:23:18;;;;;;;46.88;39.25;;;;;;;8.81;nan;100045.66;10316888;28;20524;-71
2024/01/22 09:28:20;;;;;;;45.80;41.15;;;;;;;8.82;nan;100057.44;10301030;28;20600;-71
2024/01/22 09:33:21;;;;;;;58.05;40.90;;;;;;;8.82;nan;100073.91;10300119;28;20047;-71
2024/01/22 09:38:22;;;;;;;46.45;40.47;;;;;;;8.77;nan;100063.72;10289306;28;20043;-72
2024/01/22 09:43:22;;;;;;;64.13;39.92;;;;;;;8.81;nan;100086.00;10300711;28;20043;-69
2024/01/22 09:48:23;;;;;;;55.67;39.22;;;;;;;8.68;nan;100082.59;10306275;28;20049;-73
2024/01/22 09:53:23;;;;;;;42.80;36.05;;;;;;;8.77;nan;100095.84;10310627;28;20042;-71
2024/01/22 09:58:26;;;;;;;48.80;34.33;;;;;;;8.83;nan;100114.84;10286714;28;20077;-72
2024/01/22 10:03:30;;;;;;;55.15;34.85;;;;;;;8.90;nan;100114.63;10298395;28;20030;-71
2024/01/22 10:08:31;;;;;;;54.95;32.60;;;;;;;8.80;nan;100131.81;10324354;28;20541;-72
2024/01/22 10:13:47;;;;;;;42.85;33.05;;;;;;;8.70;nan;100126.22;10321932;28;20038;-71
2024/01/22 10:19:04;;;;;;;41.50;28.53;;;;;;;8.68;nan;100122.91;10313469;28;20142;-71
2024/01/22 10:24:05;;;;;;;45.42;25.67;;;;;;;8.76;nan;100147.16;10312532;28;20270;-71
2024/01/22 10:29:21;;;;;;;43.22;26.45;;;;;;;8.79;nan;100154.06;10322167;28;20077;-71
2024/01/22 10:34:28;;;;;;;42.87;23.60;;;;;;;8.80;nan;100163.94;10306031;28;20067;-71
2024/01/22 10:39:28;;;;;;;34.83;24.65;;;;;;;8.67;nan;100182.47;10318744;28;20046;-72
2024/01/22 10:44:29;;;;;;;37.33;22.40;;;;;;;8.57;nan;100178.78;10313423;28;20039;-71
2024/01/22 10:49:29;;;;;;;44.72;20.75;;;;;;;8.50;nan;100195.47;10300028;28;20130;-71
2024/01/22 10:54:30;;;;;;;35.58;14.82;;;;;;;8.55;nan;100187.28;10277285;28;20051;-72
2024/01/22 10:59:36;;;;;;;42.78;13.10;;;;;;;8.57;nan;100173.31;10272756;28;20403;-71
2024/01/22 11:04:46;;;;;;;23.05;8.90;;;;;;;8.73;nan;100191.59;10297517;28;20042;-72
2024/01/22 11:09:47;;;;;;;33.42;8.90;;;;;;;8.76;nan;100196.53;10311664;28;20077;-71
2024/01/22 11:14:47;;;;;;;27.25;8.73;;;;;;;8.76;nan;100201.22;10312342;28;20639;-72
2024/01/22 11:19:47;;;;;;;38.08;13.18;;;;;;;8.52;nan;100208.94;10317640;28;20039;-72
2024/01/22 11:25:09;;;;;;;37.78;11.38;;;;;;;8.54;nan;100215.81;10319750;28;20038;-71
2024/01/22 11:30:25;;;;;;;28.45;10.07;;;;;;;8.86;nan;100215.03;10307986;28;20039;-72
2024/01/22 11:35:35;;;;;;;34.08;9.82;;;;;;;8.90;nan;100194.22;10317843;28;20050;-72
2024/01/22 11:40:48;;;;;;;38.03;9.02;;;;;;;9.15;nan;100220.25;10301997;28;20074;-71
2024/01/22 11:45:51;;;;;;;45.38;9.82;;;;;;;9.30;nan;100220.38;10317972;28;20038;-72
2024/01/22 11:51:04;;;;;;;37.13;7.43;;;;;;;9.34;nan;100224.25;10314857;28;20046;-72
2024/01/22 11:56:05;;;;;;;34.13;6.50;;;;;;;9.43;nan;100208.97;10310645;28;20775;-71
2024/01/22 12:01:09;;;;;;;32.20;7.43;;;;;;;9.46;nan;100221.34;10309563;28;20043;-72
2024/01/22 12:06:10;;;;;;;25.35;5.70;;;;;;;9.37;nan;100217.44;10330865;28;20035;-71
2024/01/22 12:11:14;;;;;;;26.02;5.72;;;;;;;9.52;nan;100217.53;10291174;28;20070;-71
2024/01/22 12:16:16;;;;;;;28.67;6.22;;;;;;;9.84;nan;100200.19;10275588;28;20042;-72
2024/01/22 12:21:17;;;;;;;25.27;6.15;;;;;;;9.81;nan;100214.44;10276013;28;20043;-72
2024/01/22 12:26:23;;;;;;;25.35;5.28;;;;;;;9.96;nan;100235.69;10272515;28;20054;-71
2024/01/22 12:31:24;;;;;;;21.33;5.10;;;;;;;10.00;nan;100236.81;10274251;28;20035;-71
2024/01/22 12:36:26;;;;;;;33.33;6.15;;;;;;;10.05;nan;100261.63;10273263;28;20054;-72
2024/01/22 12:41:27;;;;;;;18.63;4.35;;;;;;;10.02;nan;100264.88;10276184;28;20046;-72
2024/01/22 12:46:28;;;;;;;21.20;6.13;;;;;;;9.76;nan;100267.47;10276739;28;20043;-72
2024/01/22 12:51:28;;;;;;;21.58;4.85;;;;;;;9.52;nan;100290.91;10270229;28;20043;-72
2024/01/22 12:56:29;;;;;;;20.33;4.45;;;;;;;9.53;nan;100287.91;10276008;28;20042;-72
2024/01/22 13:01:29;;;;;;;23.40;4.60;;;;;;;9.22;nan;100284.88;10263658;28;20046;-72
2024/01/22 13:06:30;;;;;;;19.02;3.95;;;;;;;9.30;nan;100294.53;10277145;28;20050;-70
2024/01/22 13:11:30;;;;;;;13.55;3.20;;;;;;;9.40;nan;100288.31;10293875;28;20070;-73
2024/01/22 13:16:31;;;;;;;19.30;4.20;;;;;;;9.42;nan;100286.97;10318757;28;20053;-72
2024/01/22 13:21:32;;;;;;;13.18;3.60;;;;;;;9.66;nan;100305.88;10327958;28;20649;-72
2024/01/22 13:26:32;;;;;;;16.17;3.50;;;;;;;9.94;nan;100312.13;10311092;28;20042;-72
2024/01/22 13:31:33;;;;;;;17.15;4.70;;;;;;;10.24;nan;100304.06;10319928;28;20566;-72
2024/01/22 13:36:33;;;;;;;18.02;3.28;;;;;;;9.80;nan;100309.03;10298112;28;20042;-72
2024/01/22 13:41:44;;;;;;;29.20;4.93;;;;;;;9.53;nan;100315.38;10312733;28;20038;-73
2024/01/22 13:46:44;;;;;;;18.23;4.40;;;;;;;9.21;nan;100329.06;10318671;28;20042;-71
2024/01/22 13:51:45;;;;;;;20.83;4.25;;;;;;;9.02;nan;100359.63;10320941;28;20042;-72
2024/01/22 13:56:45;;;;;;;23.17;4.20;;;;;;;9.04;nan;100335.50;10319861;28;20043;-72
2024/01/22 14:01:46;;;;;;;16.73;4.00;;;;;;;9.24;nan;100350.53;10316188;28;20046;-72
2024/01/22 14:06:46;;;;;;;25.38;4.38;;;;;;;9.32;nan;100373.97;10324029;28;20038;-72
2024/01/22 14:11:47;;;;;;;26.80;4.60;;;;;;;9.15;nan;100393.28;10293949;28;20040;-72
2024/01/22 14:16:47;;;;;;;24.55;4.18;;;;;;;9.01;nan;100401.06;10311798;28;20039;-72
2024/01/22 14:21:48;;;;;;;14.32;3.70;;;;;;;8.91;nan;100400.94;10297911;28;20442;-68
2024/01/22 14:26:49;;;;;;;14.35;4.13;;;;;;;8.93;nan;100394.13;10289819;28;20035;-72
2024/01/22 14:31:49;;;;;;;25.20;5.40;;;;;;;8.74;nan;100401.81;10299341;28;20039;-72
2024/01/22 14:36:51;;;;;;;23.00;5.65;;;;;;;8.68;nan;100413.81;10304634;28;20065;-71
2024/01/22 14:41:51;;;;;;;32.00;6.60;;;;;;;8.60;nan;100412.34;10297361;28;20043;-72
2024/01/22 14:46:51;;;;;;;19.90;3.83;;;;;;;8.37;nan;100412.50;10293101;28;20098;-71
2024/01/22 14:51:52;;;;;;;28.20;6.03;;;;;;;8.46;nan;100438.47;10297789;28;20043;-72
2024/01/22 14:56:53;;;;;;;27.75;4.75;;;;;;;8.14;nan;100399.81;10307755;28;20057;-71
2024/01/22 15:01:53;;;;;;;27.50;5.05;;;;;;;8.34;nan;100429.47;10300284;28;20042;-74
2024/01/22 15:06:54;;;;;;;15.50;3.42;;;;;;;8.23;nan;100440.28;10297846;28;20066;-73
2024/01/22 15:11:54;;;;;;;20.13;3.88;;;;;;;8.26;nan;100450.72;10287579;28;20059;-74
2024/01/22 15:16:55;;;;;;;18.40;3.97;;;;;;;8.08;nan;100449.09;10303006;28;20063;-73
2024/01/22 15:21:56;;;;;;;24.98;4.88;;;;;;;7.85;nan;100438.25;10282928;28;21019;-74
2024/01/22 15:26:56;;;;;;;23.98;5.13;;;;;;;7.88;nan;100479.69;10291142;28;20050;-73
2024/01/22 15:31:56;;;;;;;25.92;5.93;;;;;;;7.81;nan;100481.78;10288835;28;20043;-74
2024/01/22 15:36:57;;;;;;;35.83;5.25;;;;;;;7.62;nan;100499.47;10311555;28;20042;-75
2024/01/22 15:41:58;;;;;;;18.80;4.68;;;;;;;7.55;nan;100510.59;10311147;28;20043;-76
2024/01/22 15:46:58;;;;;;;22.45;4.93;;;;;;;7.56;nan;100519.63;10295843;28;20078;-75
2024/01/22 15:51:59;;;;;;;23.15;5.03;;;;;;;7.50;nan;100515.13;10286274;28;20483;-74
2024/01/22 15:56:59;;;;;;;25.33;5.13;;;;;;;7.60;nan;100526.28;10309295;28;20039;-77
2024/01/22 16:02:00;;;;;;;26.55;5.30;;;;;;;7.50;nan;100537.03;10300019;28;20049;-71
2024/01/22 16:07:00;;;;;;;29.95;6.28;;;;;;;7.43;nan;100540.72;10295379;28;20050;-75
2024/01/22 16:12:01;;;;;;;29.30;6.47;;;;;;;7.37;nan;100558.13;10281508;28;20045;-74
2024/01/22 16:17:02;;;;;;;26.95;6.82;;;;;;;7.30;nan;100540.16;10279368;28;20066;-75
2024/01/22 16:22:05;;;;;;;25.02;5.15;;;;;;;7.16;nan;100542.34;10296166;28;20042;-76
2024/01/22 16:27:05;;;;;;;33.38;7.05;;;;;;;7.04;nan;100565.06;10301525;28;20046;-71
2024/01/22 16:32:06;;;;;;;32.10;5.75;;;;;;;6.98;nan;100570.66;10303631;28;20045;-71
2024/01/22 16:37:06;;;;;;;32.92;6.18;;;;;;;6.95;nan;100587.59;10312662;28;20046;-72
2024/01/22 16:42:07;;;;;;;28.58;5.85;;;;;;;6.91;nan;100594.59;10312881;28;20039;-71
2024/01/22 16:47:07;;;;;;;37.17;6.93;;;;;;;6.87;nan;100594.22;10281413;28;20043;-72
2024/01/22 16:52:08;;;;;;;19.15;3.83;;;;;;;6.77;nan;100592.06;10327166;28;20094;-72
2024/01/22 16:57:08;;;;;;;32.80;4.47;;;;;;;6.75;nan;100607.06;10301718;28;20090;-71
2024/01/22 17:02:09;;;;;;;36.50;6.43;;;;;;;6.61;nan;100612.72;10302251;28;20047;-71
2024/01/22 17:07:11;;;;;;;24.85;4.75;;;;;;;6.54;nan;100620.22;10308429;28;20300;-70
2024/01/22 17:12:11;;;;;;;31.67;5.07;;;;;;;6.51;nan;100634.38;10316131;28;20047;-71
2024/01/22 17:17:12;;;;;;;25.45;5.72;;;;;;;6.48;nan;100626.63;10295320;28;20074;-72
2024/01/22 17:22:12;;;;;;;27.10;4.57;;;;;;;6.45;nan;100627.94;10303333;28;20049;-71
2024/01/22 17:27:13;;;;;;;27.30;4.88;;;;;;;6.44;nan;100642.66;10305514;28;20042;-72
2024/01/22 17:32:13;;;;;;;21.17;3.80;;;;;;;6.43;nan;100657.41;10302434;28;20039;-72
2024/01/22 17:37:14;;;;;;;29.35;6.40;;;;;;;6.39;nan;100660.84;10293769;28;20054;-70
2024/01/22 17:42:15;;;;;;;21.27;6.35;;;;;;;6.39;nan;100666.31;10306990;28;20257;-72
2024/01/22 17:47:16;;;;;;;24.77;6.07;;;;;;;6.30;nan;100673.97;10320802;28;20046;-72
2024/01/22 17:52:16;;;;;;;24.80;4.50;;;;;;;6.23;nan;100681.44;10304221;28;20410;-73
2024/01/22 17:57:17;;;;;;;25.38;5.75;;;;;;;6.11;nan;100681.38;10297930;28;20043;-72
2024/01/22 18:02:17;;;;;;;19.40;3.67;;;;;;;6.08;nan;100698.25;10289723;28;20051;-73
2024/01/22 18:07:18;;;;;;;26.20;5.35;;;;;;;6.12;nan;100693.13;10313301;28;20089;-70
2024/01/22 18:12:20;;;;;;;19.77;3.67;;;;;;;6.18;nan;100705.91;10315229;28;20050;-73
2024/01/22 18:17:20;;;;;;;27.98;4.57;;;;;;;6.23;nan;100701.41;10315473;28;20490;-72
2024/01/22 18:22:21;;;;;;;21.20;4.32;;;;;;;6.23;nan;100698.69;10316461;28;20042;-72
2024/01/22 18:27:21;;;;;;;34.47;6.65;;;;;;;6.44;nan;100707.47;10296471;28;20065;-72
2024/01/22 18:32:22;;;;;;;29.23;6.50;;;;;;;6.49;nan;100709.50;10322246;28;20066;-72
2024/01/22 18:37:25;;;;;;;20.17;3.63;;;;;;;6.46;nan;100711.63;10325733;28;20052;-72
2024/01/22 18:42:25;;;;;;;20.55;3.95;;;;;;;6.35;nan;100719.78;10319320;28;20027;-72
2024/01/22 18:47:27;;;;;;;25.48;3.58;;;;;;;6.23;nan;100734.22;10324823;28;20045;-72
2024/01/22 18:52:27;;;;;;;29.67;5.70;;;;;;;6.17;nan;100724.19;10315834;28;20265;-72
2024/01/22 18:57:27;;;;;;;21.45;4.13;;;;;;;6.18;nan;100731.34;10318158;28;20046;-73
2024/01/22 19:02:28;;;;;;;22.45;3.90;;;;;;;6.22;nan;100743.50;10296332;28;20067;-71
2024/01/22 19:07:28;;;;;;;18.92;3.65;;;;;;;6.20;nan;100734.69;10329532;28;20046;-73
2024/01/22 19:12:29;;;;;;;14.45;3.05;;;;;;;6.20;nan;100731.97;10313511;28;20063;-71
2024/01/22 19:17:29;;;;;;;15.73;3.05;;;;;;;6.11;nan;100722.38;10314995;28;20054;-73
2024/01/22 19:22:30;;;;;;;14.32;2.70;;;;;;;6.20;nan;100745.63;10316009;28;20038;-73
2024/01/22 19:27:30;;;;;;;17.75;3.83;;;;;;;6.17;nan;100767.94;10308871;28;20049;-72
2024/01/22 19:32:31;;;;;;;17.33;3.60;;;;;;;6.00;nan;100755.94;10318719;28;20049;-72
2024/01/22 19:37:31;;;;;;;9.63;2.35;;;;;;;5.95;nan;100780.38;10319841;28;20073;-72
2024/01/22 19:42:31;;;;;;;15.98;3.15;;;;;;;5.91;nan;100792.78;10320011;28;20042;-73
2024/01/22 19:47:32;;;;;;;19.08;4.10;;;;;;;5.87;nan;100792.41;10316610;28;20039;-73
2024/01/22 19:52:33;;;;;;;12.15;2.38;;;;;;;5.78;nan;100802.78;10318257;28;20106;-72
2024/01/22 19:57:33;;;;;;;16.92;5.30;;;;;;;5.83;nan;100800.22;10313627;28;20038;-71
2024/01/22 20:02:33;;;;;;;19.45;4.45;;;;;;;5.77;nan;100812.03;10317317;28;20557;-72
2024/01/22 20:07:34;;;;;;;28.52;4.85;;;;;;;5.91;nan;100826.41;10318393;28;20569;-72
2024/01/22 20:12:36;;;;;;;25.63;4.45;;;;;;;6.09;nan;100820.16;10315607;28;20035;-72
2024/01/22 20:17:36;;;;;;;22.67;3.08;;;;;;;6.09;nan;100828.38;10317923;28;20078;-72
2024/01/22 20:22:37;;;;;;;18.02;3.30;;;;;;;5.92;nan;100805.41;10313246;28;20043;-73
2024/01/22 20:27:39;;;;;;;30.45;4.47;;;;;;;5.84;nan;100833.84;10318004;28;20035;-72
2024/01/22 20:32:40;;;;;;;19.33;3.25;;;;;;;5.87;nan;100852.53;10322459;28;20050;-72
2024/01/22 20:37:41;;;;;;;29.83;4.70;;;;;;;5.82;nan;100858.63;10318554;28;20066;-72
2024/01/22 20:42:41;;;;;;;18.20;3.80;;;;;;;5.85;nan;100855.47;10297933;28;20035;-73
2024/01/22 20:47:42;;;;;;;16.60;4.72;;;;;;;5.87;nan;100844.34;10315858;28;20035;-72
2024/01/22 20:52:42;;;;;;;22.27;3.50;;;;;;;5.89;nan;100846.81;10318647;28;20042;-73
2024/01/22 20:57:44;;;;;;;18.42;2.78;;;;;;;5.94;nan;100858.75;10311417;28;20042;-72
2024/01/22 21:02:45;;;;;;;25.20;4.70;;;;;;;5.91;nan;100872.03;10309584;28;20039;-72
2024/01/22 21:07:45;;;;;;;18.55;3.15;;;;;;;5.92;nan;100874.53;10319415;28;20030;-71
2024/01/22 21:12:46;;;;;;;15.75;3.22;;;;;;;5.63;nan;100826.88;10307918;28;20030;-72
2024/01/22 21:17:47;;;;;;;18.25;4.35;;;;;;;6.01;nan;100858.72;10313672;28;20134;-72
2024/01/22 21:22:50;;;;;;;20.15;3.25;;;;;;;6.00;nan;100846.97;10314866;28;20095;-73
2024/01/22 21:27:50;;;;;;;15.65;2.78;;;;;;;6.02;nan;100883.09;10303965;28;20042;-72
2024/01/22 21:32:51;;;;;;;20.02;4.68;;;;;;;6.08;nan;100884.13;10312505;28;20054;-73
2024/01/22 21:37:51;;;;;;;24.65;3.67;;;;;;;6.21;nan;100886.69;10315325;28;20095;-72
2024/01/22 21:42:52;;;;;;;21.98;3.00;;;;;;;6.37;nan;100888.03;10302499;28;20042;-72
2024/01/22 21:47:52;;;;;;;28.17;3.40;;;;;;;6.29;nan;100890.22;10318127;28;20097;-72
2024/01/22 21:52:53;;;;;;;16.45;4.13;;;;;;;6.33;nan;100905.13;10326485;28;20053;-72
2024/01/22 21:57:54;;;;;;;23.33;3.50;;;;;;;6.30;nan;100892.72;10321612;28;20042;-72
2024/01/22 22:02:54;;;;;;;21.20;4.20;;;;;;;6.20;nan;100908.78;10320571;28;20074;-72
2024/01/22 22:07:55;;;;;;;16.15;2.60;;;;;;;6.14;nan;100931.56;10312554;28;20054;-73
2024/01/22 22:12:56;;;;;;;22.20;4.18;;;;;;;6.05;nan;100931.84;10313683;28;20035;-72
2024/01/22 22:17:57;;;;;;;11.20;2.25;;;;;;;6.06;nan;100930.78;10311696;28;20070;-72
2024/01/22 22:22:58;;;;;;;18.77;3.80;;;;;;;6.03;nan;100925.75;10319607;28;20102;-72
2024/01/22 22:27:58;;;;;;;18.92;3.67;;;;;;;6.07;nan;100935.19;10324171;28;20035;-72
2024/01/22 22:32:59;;;;;;;30.30;5.13;;;;;;;6.07;nan;100926.97;10311765;28;20046;-72
2024/01/22 22:38:00;;;;;;;19.80;2.17;;;;;;;6.13;nan;100941.66;10311934;28;20039;-73
2024/01/22 22:43:00;;;;;;;15.82;3.55;;;;;;;6.19;nan;100956.34;10312112;28;20039;-72
2024/01/22 22:48:00;;;;;;;15.52;4.07;;;;;;;6.20;nan;100947.94;10312226;28;20066;-72
2024/01/22 22:53:01;;;;;;;12.90;2.35;;;;;;;6.18;nan;100944.56;10315335;28;20045;-72
2024/01/22 22:58:01;;;;;;;13.80;4.25;;;;;;;6.26;nan;100946.16;10314236;28;20082;-72
2024/01/22 23:03:03;;;;;;;17.33;2.78;;;;;;;6.26;nan;100938.81;10311762;28;20054;-72
2024/01/22 23:08:04;;;;;;;16.90;2.95;;;;;;;6.26;nan;100962.56;10318175;28;20089;-72
2024/01/22 23:13:04;;;;;;;11.80;2.97;;;;;;;6.21;nan;100965.16;10309142;28;20065;-72
2024/01/22 23:18:05;;;;;;;13.18;2.42;;;;;;;6.18;nan;100977.38;10318303;28;20045;-72
2024/01/22 23:23:06;;;;;;;12.65;2.58;;;;;;;6.05;nan;100989.22;10319497;28;20069;-72
2024/01/22 23:28:06;;;;;;;11.52;2.70;;;;;;;6.05;nan;100996.59;10322349;28;20049;-71
2024/01/22 23:33:07;;;;;;;13.25;2.63;;;;;;;6.11;nan;101012.13;10310453;28;20536;-72